Time;durP1;ratioP1;P1;durP2;ratioP2;P2;SDS_P1;SDS_P2;PMS_P1;PMS_P2;Temp;Humidity;BMP_temperature;BMP_pressure;BME280_temperature;BME280_humidity;BME280_pressure;Samples;Min_cycle;Max_cycle;Signal;HPM_P1;HPM_P2
2021/10/21 00:00:20;;;;;;;8.35;3.10;;;15.40;99.90;;;14.08;89.77;98739.47;2569017;30;138230;-40
2021/10/21 00:02:48;;;;;;;5.68;2.72;;;15.40;99.90;;;14.13;89.04;98740.50;2570048;30;137985;-40
2021/10/21 00:05:18;;;;;;;4.88;2.80;;;15.50;99.90;;;14.14;90.15;98731.19;2570110;30;139011;-40
2021/10/21 00:07:46;;;;;;;;;;;15.50;99.90;;;14.13;91.36;98719.41;2570127;30;136899;-40
2021/10/21 00:10:16;;;;;;;5.00;3.00;;;15.40;99.90;;;14.06;93.11;98717.00;2567763;30;138569;-40
2021/10/21 00:12:43;;;;;;;6.85;3.33;;;15.40;99.90;;;13.98;95.73;98738.72;2568052;30;137745;-39
2021/10/21 00:15:12;;;;;;;7.15;3.00;;;15.30;99.90;;;13.95;97.41;98720.94;2566941;30;138310;-40
2021/10/21 00:17:41;;;;;;;6.43;3.05;;;15.30;99.90;;;13.86;98.08;98717.97;2568260;30;138182;-39
2021/10/21 00:20:10;;;;;;;6.88;3.15;;;15.20;99.90;;;13.78;99.39;98705.69;2569090;30;137099;-40
2021/10/21 00:22:42;;;;;;;5.05;2.83;;;15.20;99.90;;;13.69;100.00;98710.16;2568787;30;137080;-40
2021/10/21 00:25:10;;;;;;;6.22;2.88;;;15.10;99.90;;;13.63;100.00;98692.94;2568297;30;137353;-40
2021/10/21 00:27:40;;;;;;;5.60;3.17;;;15.00;99.90;;;13.64;100.00;98682.78;2569028;30;137273;-40
2021/10/21 00:30:11;;;;;;;5.65;2.85;;;15.00;99.90;;;13.56;100.00;98694.34;2570759;30;138633;-40
2021/10/21 00:32:42;;;;;;;7.63;2.80;;;15.00;99.90;;;13.51;100.00;98695.19;2568858;30;136876;-40
2021/10/21 00:35:11;;;;;;;9.02;3.42;;;14.90;99.90;;;13.46;100.00;98684.28;2570249;30;138973;-40
2021/10/21 00:37:39;;;;;;;6.95;2.90;;;14.90;99.90;;;13.40;100.00;98701.81;2570629;30;137371;-40
2021/10/21 00:40:08;;;;;;;7.90;3.00;;;14.80;99.90;;;13.44;100.00;98690.06;2570199;30;138441;-39
2021/10/21 00:42:36;;;;;;;5.70;2.70;;;14.80;99.90;;;13.43;100.00;98693.91;2567873;38;137295;-39
2021/10/21 00:45:04;;;;;;;;;;;14.80;99.90;;;13.43;100.00;98665.69;2569675;30;138266;-39
2021/10/21 00:47:34;;;;;;;5.95;3.00;;;14.80;99.90;;;13.37;100.00;98656.63;2570348;30;137077;-40
2021/10/21 00:50:02;;;;;;;7.40;3.40;;;14.80;99.90;;;13.41;100.00;98626.78;2568564;30;138253;-40
2021/10/21 00:52:31;;;;;;;;;;;14.80;99.90;;;13.30;100.00;98628.75;2571841;30;137219;-41
2021/10/21 00:54:59;;;;;;;6.80;3.15;;;14.70;99.90;;;13.28;100.00;98612.63;2569301;30;139195;-40
2021/10/21 00:57:27;;;;;;;8.55;3.78;;;14.70;99.90;;;13.26;100.00;98620.31;2568976;30;138096;-40
2021/10/21 00:59:54;;;;;;;;;;;14.60;99.90;;;13.29;100.00;98649.88;2568718;30;137435;-40
2021/10/21 01:02:22;;;;;;;7.90;3.63;;;14.60;99.90;;;13.33;100.00;98664.63;2568589;30;138430;-40
2021/10/21 01:04:50;;;;;;;;;;;14.70;99.90;;;13.33;100.00;98652.84;2569639;30;138340;-39
2021/10/21 01:07:18;;;;;;;4.93;2.15;;;14.70;99.90;;;13.32;100.00;98604.66;2569316;30;137764;-40
2021/10/21 01:09:46;;;;;;;3.92;1.98;;;14.70;99.90;;;13.35;100.00;98590.38;2568738;30;137350;-40
2021/10/21 01:12:13;;;;;;;5.25;1.95;;;14.70;99.90;;;13.39;100.00;98610.59;2569300;30;137561;-40
2021/10/21 01:14:43;;;;;;;3.85;1.60;;;14.70;99.90;;;13.33;100.00;98601.63;2567707;30;139112;-40
2021/10/21 01:17:15;;;;;;;3.72;1.60;;;14.70;99.90;;;13.34;99.90;98602.44;2569853;30;137839;-40
2021/10/21 01:19:43;;;;;;;3.13;1.65;;;14.70;99.90;;;13.31;100.00;98592.88;2567726;30;137829;-40
2021/10/21 01:22:11;;;;;;;3.40;1.83;;;14.70;99.90;;;13.33;100.00;98596.16;2570059;30;137440;-39
2021/10/21 01:24:38;;;;;;;4.38;1.38;;;14.70;99.90;;;13.32;100.00;98594.53;2566917;30;137137;-40
2021/10/21 01:27:06;;;;;;;3.65;1.38;;;14.70;99.90;;;13.30;99.29;98591.25;2572936;30;137671;-39
2021/10/21 01:29:35;;;;;;;4.15;1.52;;;14.70;99.90;;;13.23;98.97;98585.25;2568394;30;139088;-39
2021/10/21 01:32:05;;;;;;;3.75;1.40;;;14.70;99.90;;;13.17;99.35;98600.94;2569660;30;137322;-40
2021/10/21 01:34:33;;;;;;;4.40;1.30;;;14.60;99.90;;;13.09;98.09;98594.13;2566917;30;138326;-39
2021/10/21 01:37:00;;;;;;;3.75;1.40;;;14.50;99.90;;;13.07;97.20;98590.84;2568822;30;138175;-40
2021/10/21 01:39:28;;;;;;;3.03;1.10;;;14.50;99.90;;;13.03;96.18;98589.78;2568599;30;138269;-40
2021/10/21 01:41:56;;;;;;;2.45;1.17;;;14.50;99.90;;;12.95;94.72;98569.31;2569781;30;137470;-39
2021/10/21 01:44:23;;;;;;;;;;;14.40;99.90;;;12.92;90.04;98593.69;2569602;30;138866;-39
2021/10/21 01:46:51;;;;;;;2.40;0.77;;;14.30;99.90;;;12.98;85.19;98589.81;2568806;30;137131;-39
2021/10/21 01:49:20;;;;;;;2.92;0.98;;;14.30;99.90;;;12.90;90.11;98602.19;2569884;30;136818;-39
2021/10/21 01:51:49;;;;;;;2.90;1.00;;;14.30;99.90;;;12.75;91.79;98574.91;2569218;30;138559;-39
2021/10/21 01:54:17;;;;;;;1.88;0.75;;;14.20;99.90;;;12.60;90.40;98575.78;2570303;30;137767;-39
2021/10/21 01:56:46;;;;;;;3.83;0.70;;;14.10;99.90;;;12.48;91.00;98574.22;2568900;30;136875;-39
2021/10/21 01:59:13;;;;;;;3.13;0.80;;;14.00;99.90;;;12.44;90.94;98562.19;2569770;30;138014;-39
2021/10/21 02:01:42;;;;;;;2.33;0.75;;;13.90;99.90;;;12.36;92.11;98573.69;2570005;30;136667;-39
2021/10/21 02:04:10;;;;;;;4.50;0.77;;;13.80;99.90;;;12.29;92.88;98570.47;2571844;30;138331;-39
2021/10/21 02:06:37;;;;;;;2.75;0.85;;;13.80;99.90;;;12.22;93.90;98574.31;2569111;30;136797;-39
2021/10/21 02:09:05;;;;;;;3.78;1.15;;;13.70;99.90;;;12.19;94.02;98563.91;2571371;30;138367;-39
2021/10/21 02:11:32;;;;;;;2.72;0.70;;;13.70;99.90;;;12.16;90.39;98572.66;2570001;30;137395;-39
2021/10/21 02:14:00;;;;;;;3.60;0.70;;;13.60;99.90;;;12.11;88.27;98580.09;2569639;30;137047;-39
2021/10/21 02:16:27;;;;;;;2.63;0.60;;;13.50;99.90;;;12.07;87.95;98571.63;2570342;30;137832;-39
2021/10/21 02:18:55;;;;;;;4.45;0.70;;;13.50;99.90;;;12.05;87.60;98563.69;2569509;30;139144;-39
2021/10/21 02:21:22;;;;;;;3.17;0.93;;;13.50;99.90;;;12.05;86.76;98571.88;2577845;30;138112;-41
2021/10/21 02:23:50;;;;;;;3.22;0.52;;;13.50;99.90;;;11.92;85.28;98570.50;2567670;30;138975;-41
2021/10/21 02:26:17;;;;;;;3.67;0.60;;;13.40;99.90;;;11.86;84.80;98566.16;2567327;30;137614;-40
2021/10/21 02:28:45;;;;;;;2.88;0.60;;;13.30;99.90;;;11.84;82.50;98573.81;2567909;30;139261;-40
2021/10/21 02:31:12;;;;;;;4.43;0.75;;;13.30;99.90;;;11.79;82.40;98557.44;2567534;30;137818;-40
2021/10/21 02:33:40;;;;;;;4.05;0.63;;;13.30;99.90;;;11.74;81.63;98560.19;2569345;30;138480;-41
2021/10/21 02:36:07;;;;;;;3.65;0.50;;;13.20;99.90;;;11.69;81.93;98560.19;2568318;30;136804;-40
2021/10/21 02:38:35;;;;;;;2.83;0.63;;;13.20;99.90;;;11.62;80.15;98561.28;2567104;30;139431;-40
2021/10/21 02:41:03;;;;;;;3.80;0.55;;;13.10;99.90;;;11.64;79.82;98559.09;2568266;30;136731;-41
2021/10/21 02:43:31;;;;;;;;;;;13.10;99.90;;;11.58;80.47;98543.81;2568247;30;137102;-40
2021/10/21 02:46:00;;;;;;;4.15;0.70;;;13.10;99.90;;;11.51;81.53;98571.38;2568480;30;137205;-40
2021/10/21 02:48:28;;;;;;;2.63;0.57;;;13.00;99.90;;;11.48;81.31;98539.16;2568151;30;137264;-41
2021/10/21 02:50:56;;;;;;;2.97;0.50;;;13.00;99.90;;;11.47;80.88;98544.91;2568261;30;137469;-40
2021/10/21 02:53:23;;;;;;;4.07;0.88;;;12.90;99.90;;;11.42;82.93;98547.66;2567735;30;139146;-41
2021/10/21 02:55:51;;;;;;;6.07;0.70;;;12.90;99.90;;;11.51;81.60;98543.28;2567061;30;137000;-42
2021/10/21 02:58:19;;;;;;;6.13;0.93;;;12.90;99.90;;;11.47;81.00;98547.66;2568028;30;139092;-42
2021/10/21 03:00:47;;;;;;;;;;;12.90;99.90;;;11.61;81.54;98565.09;2568029;30;137432;-41
2021/10/21 03:03:14;;;;;;;3.63;0.52;;;13.00;99.90;;;11.59;81.90;98567.28;2568434;30;137352;-40
2021/10/21 03:05:42;;;;;;;3.08;0.38;;;13.00;99.90;;;11.54;82.76;98559.09;2566113;30;137774;-40
2021/10/21 03:08:09;;;;;;;5.80;0.60;;;13.00;99.90;;;11.58;81.54;98549.28;2568568;30;139333;-40
2021/10/21 03:10:37;;;;;;;3.92;0.60;;;13.00;99.90;;;11.68;79.75;98547.63;2568328;30;137381;-40
2021/10/21 03:13:04;;;;;;;3.80;0.82;;;13.00;99.90;;;11.70;81.97;98554.44;2568321;30;138289;-40
2021/10/21 03:15:32;;;;;;;6.10;0.77;;;13.10;99.90;;;11.71;82.30;98550.63;2568000;30;137328;-41
2021/10/21 03:18:00;;;;;;;3.58;0.82;;;13.10;99.90;;;11.68;81.96;98550.38;2568900;30;136996;-40
2021/10/21 03:20:27;;;;;;;4.55;0.50;;;13.10;99.90;;;11.71;81.26;98555.28;2567507;30;137070;-40
2021/10/21 03:22:55;;;;;;;2.92;0.90;;;13.10;99.90;;;11.67;82.04;98541.34;2566948;30;138622;-40
2021/10/21 03:25:22;;;;;;;4.95;0.90;;;13.10;99.90;;;11.65;81.01;98541.59;2566639;30;138098;-40
2021/10/21 03:27:50;;;;;;;3.35;0.60;;;13.10;99.90;;;11.63;81.37;98541.06;2568599;30;139193;-41
2021/10/21 03:30:18;;;;;;;3.30;0.63;;;13.10;99.90;;;11.74;80.54;98532.88;2568182;30;137858;-40
2021/10/21 03:32:45;;;;;;;5.20;1.00;;;13.10;99.90;;;11.75;81.09;98534.50;2565090;30;139514;-40
2021/10/21 03:35:13;;;;;;;3.00;0.60;;;13.20;99.90;;;11.69;80.22;98532.88;2567300;30;136622;-41
2021/10/21 03:37:40;;;;;;;4.07;0.77;;;13.20;99.90;;;11.66;79.95;98524.13;2568875;30;137418;-40
2021/10/21 03:40:11;;;;;;;3.92;0.93;;;13.10;99.90;;;11.68;79.85;98528.53;2567808;30;137427;-40
2021/10/21 03:42:38;;;;;;;3.25;0.60;;;13.10;99.90;;;11.72;79.65;98529.59;2567982;30;138944;-40
2021/10/21 03:45:07;;;;;;;5.32;1.00;;;13.10;99.90;;;11.68;78.84;98514.88;2569330;30;136756;-40
2021/10/21 03:47:35;;;;;;;5.03;0.60;;;13.10;99.90;;;11.79;78.40;98513.72;2568497;30;137095;-40
2021/10/21 03:50:02;;;;;;;3.28;0.55;;;13.20;99.90;;;11.85;77.62;98523.53;2567134;30;136556;-40
2021/10/21 03:52:30;;;;;;;;;;;13.20;99.90;;;11.90;77.57;98528.19;2568361;30;138175;-40
2021/10/21 03:54:57;;;;;;;2.83;0.75;;;13.30;99.90;;;11.88;78.80;98527.66;2568323;30;137786;-40
2021/10/21 03:57:25;;;;;;;3.03;0.60;;;13.30;99.90;;;11.90;77.71;98517.25;2567823;30;139372;-40
2021/10/21 03:59:52;;;;;;;3.95;0.82;;;13.30;99.90;;;11.92;76.97;98526.78;2566459;30;137108;-40
2021/10/21 04:02:20;;;;;;;4.53;0.70;;;13.30;99.90;;;11.96;78.26;98534.47;2568801;30;138249;-40
2021/10/21 04:04:48;;;;;;;3.65;0.55;;;13.30;99.90;;;11.89;76.11;98500.03;2566978;30;136845;-40
2021/10/21 04:07:15;;;;;;;2.58;0.80;;;13.40;99.90;;;11.95;76.66;98525.44;2567658;30;137378;-40
2021/10/21 04:09:43;;;;;;;3.28;0.57;;;13.40;99.90;;;11.94;76.70;98518.34;2568112;30;138246;-40
2021/10/21 04:12:10;;;;;;;6.82;1.08;;;13.30;99.90;;;11.94;77.60;98505.50;2568900;30;136769;-40
2021/10/21 04:14:40;;;;;;;2.53;0.38;;;13.40;99.90;;;11.89;77.67;98505.50;2568570;30;137469;-40
2021/10/21 04:17:07;;;;;;;5.32;0.70;;;13.30;99.90;;;11.86;77.80;98502.53;2568049;30;137785;-40
2021/10/21 04:19:35;;;;;;;5.57;0.63;;;13.30;99.90;;;11.91;76.53;98503.31;2569261;30;137343;-40
2021/10/21 04:22:03;;;;;;;3.58;0.60;;;13.30;99.90;;;11.93;77.54;98500.31;2565744;30;136819;-40
2021/10/21 04:24:30;;;;;;;5.05;0.50;;;13.30;99.90;;;11.92;77.51;98513.13;2567872;30;138281;-40
2021/10/21 04:26:58;;;;;;;2.88;0.50;;;13.40;99.90;;;11.89;76.90;98494.56;2566480;30;138525;-40
2021/10/21 04:29:25;;;;;;;3.28;0.57;;;13.30;99.90;;;11.91;77.36;98495.09;2568121;30;137896;-40
2021/10/21 04:31:54;;;;;;;2.22;0.32;;;13.30;99.90;;;11.88;77.65;98514.00;2568250;30;138415;-39
2021/10/21 04:34:22;;;;;;;2.70;0.45;;;13.30;99.90;;;11.86;78.02;98511.50;2567350;30;137358;-40
2021/10/21 04:36:50;;;;;;;4.13;0.77;;;13.30;99.90;;;11.90;77.23;98507.13;2568130;30;138760;-40
2021/10/21 04:39:17;;;;;;;;;;;13.30;99.90;;;11.83;77.92;98476.56;2567455;30;138374;-40
2021/10/21 04:41:45;;;;;;;3.60;0.30;;;13.30;99.90;;;11.86;77.31;98510.72;2568728;30;138373;-40
2021/10/21 04:44:13;;;;;;;2.80;0.30;;;13.30;99.90;;;11.97;77.14;98506.84;2568044;30;137495;-40
2021/10/21 04:46:40;;;;;;;;;;;13.30;99.90;;;11.94;77.97;98519.16;2567452;30;138286;-39
2021/10/21 04:49:07;;;;;;;2.67;0.30;;;13.40;99.90;;;11.92;77.43;98510.41;2566625;30;138059;-40
2021/10/21 04:51:35;;;;;;;0.35;0.17;;;13.30;99.90;;;11.89;77.00;98502.75;2566561;30;137886;-39
2021/10/21 04:54:02;;;;;;;3.30;0.35;;;13.30;99.90;;;11.90;77.73;98512.59;2568582;30;136694;-40
2021/10/21 04:56:30;;;;;;;0.40;0.10;;;13.30;99.90;;;11.87;78.97;98512.34;2567612;30;138232;-40
2021/10/21 04:58:57;;;;;;;1.35;0.40;;;13.30;99.90;;;11.78;80.33;98503.91;2568466;30;136845;-40
2021/10/21 05:01:25;;;;;;;1.70;0.28;;;13.20;99.90;;;11.70;80.60;98507.22;2567239;30;139075;-40
2021/10/21 05:03:54;;;;;;;1.17;0.20;;;13.20;99.90;;;11.66;80.38;98509.66;2567181;30;137452;-40
2021/10/21 05:06:22;;;;;;;2.08;0.35;;;13.10;99.90;;;11.60;81.78;98519.78;2564719;30;138458;-40
2021/10/21 05:08:49;;;;;;;7.57;0.47;;;13.10;99.90;;;11.56;82.36;98521.41;2568889;30;136816;-39
2021/10/21 05:11:17;;;;;;;2.10;0.22;;;13.00;99.90;;;11.52;82.64;98501.22;2566874;30;138262;-39
2021/10/21 05:13:44;;;;;;;1.48;0.20;;;13.00;99.90;;;11.42;83.85;98512.16;2567303;30;137160;-40
2021/10/21 05:16:12;;;;;;;2.97;0.35;;;12.90;99.90;;;11.36;84.73;98514.88;2568044;30;137192;-40
2021/10/21 05:18:39;;;;;;;3.60;0.32;;;12.80;99.90;;;11.30;85.70;98517.91;2568043;30;137606;-39
2021/10/21 05:21:07;;;;;;;1.73;0.20;;;12.80;99.90;;;11.25;87.09;98512.44;2568089;30;137496;-40
2021/10/21 05:23:36;;;;;;;1.80;0.30;;;12.80;99.90;;;11.15;86.77;98497.69;2568662;30;137311;-39
2021/10/21 05:26:03;;;;;;;0.98;0.10;;;12.60;99.90;;;11.13;87.14;98508.06;2566939;30;138218;-40
2021/10/21 05:28:31;;;;;;;2.85;0.30;;;12.60;99.90;;;11.14;87.02;98496.06;2567229;30;137070;-39
2021/10/21 05:30:58;;;;;;;1.50;0.22;;;12.60;99.90;;;11.13;86.08;98480.78;2568061;30;137304;-40
2021/10/21 05:33:26;;;;;;;0.77;0.22;;;12.60;99.90;;;11.13;86.67;98480.78;2568511;30;137505;-40
2021/10/21 05:35:53;;;;;;;0.55;0.25;;;12.60;99.90;;;11.04;87.96;98483.25;2569355;30;138202;-40
2021/10/21 05:38:21;;;;;;;0.52;0.10;;;12.50;99.90;;;11.01;88.16;98474.81;2568404;30;136647;-40
2021/10/21 05:40:49;;;;;;;1.42;0.20;;;12.50;99.90;;;10.99;88.89;98496.06;2568545;30;139009;-39
2021/10/21 05:43:17;;;;;;;2.45;0.30;;;12.40;99.90;;;10.94;88.06;98492.22;2566753;30;137614;-40
2021/10/21 05:45:45;;;;;;;0.55;0.10;;;12.40;99.90;;;11.00;88.20;98484.88;2568379;30;137335;-40
2021/10/21 05:48:14;;;;;;;1.10;0.38;;;12.40;99.90;;;10.92;88.75;98491.69;2567161;30;137648;-40
2021/10/21 05:50:43;;;;;;;1.02;0.22;;;12.40;99.90;;;10.82;89.84;98499.88;2569363;30;137330;-39
2021/10/21 05:53:11;;;;;;;1.42;0.22;;;12.30;99.90;;;10.75;90.23;98505.59;2565761;30;137319;-39
2021/10/21 05:55:38;;;;;;;3.63;0.30;;;12.30;99.90;;;10.64;90.62;98510.19;2568349;30;138158;-40
2021/10/21 05:58:08;;;;;;;2.08;0.40;;;12.10;99.90;;;10.58;91.62;98532.25;2567458;30;138605;-40
2021/10/21 06:00:36;;;;;;;0.85;0.32;;;12.10;99.90;;;10.47;92.27;98543.16;2568908;30;137553;-40
2021/10/21 06:03:03;;;;;;;2.03;0.60;;;12.00;99.90;;;10.43;91.47;98547.50;2565844;30;137485;-39
2021/10/21 06:05:31;;;;;;;2.45;0.50;;;11.90;99.90;;;10.41;90.39;98549.69;2567882;30;138241;-40
2021/10/21 06:08:00;;;;;;;4.30;0.57;;;11.90;99.90;;;10.39;91.21;98580.97;2567868;30;136809;-40
2021/10/21 06:10:28;;;;;;;3.55;0.70;;;11.90;99.90;;;10.31;92.94;98598.66;2567118;30;139053;-39
2021/10/21 06:12:58;;;;;;;;;;;11.80;99.90;;;10.19;94.48;98601.59;2566279;30;137359;-40
2021/10/21 06:15:26;;;;;;;2.65;0.60;;;11.70;99.90;;;10.03;96.59;98626.03;2567996;30;138289;-40
2021/10/21 06:17:56;;;;;;;3.15;0.73;;;11.60;99.90;;;9.96;97.01;98669.03;2566813;30;136632;-39
2021/10/21 06:20:24;;;;;;;3.33;0.52;;;11.50;99.90;;;9.93;97.85;98680.44;2568312;30;139167;-40
2021/10/21 06:22:52;;;;;;;3.58;0.50;;;11.50;99.90;;;9.86;98.12;98718.81;2568704;30;137652;-39
2021/10/21 06:25:19;;;;;;;1.85;0.40;;;11.40;99.90;;;9.79;98.08;98738.06;2567735;30;137400;-40
2021/10/21 06:27:47;;;;;;;0.73;0.20;;;11.30;99.90;;;9.70;97.07;98785.09;2568610;30;137525;-39
2021/10/21 06:30:14;;;;;;;1.88;0.35;;;11.30;99.90;;;9.62;96.46;98789.91;2568510;30;138442;-39
2021/10/21 06:32:42;;;;;;;2.03;0.35;;;11.20;99.90;;;9.56;97.37;98834.50;2567117;30;138771;-39
2021/10/21 06:35:14;;;;;;;0.63;0.13;;;11.10;99.90;;;9.39;97.41;98869.94;2568382;30;138925;-39
2021/10/21 06:37:46;;;;;;;2.05;0.30;;;11.00;99.90;;;9.41;97.83;98922.22;2566951;30;138479;-39
2021/10/21 06:40:16;;;;;;;3.15;0.35;;;11.00;99.90;;;9.31;98.85;98925.66;2565215;30;137852;-39
2021/10/21 06:42:44;;;;;;;3.67;0.25;;;10.90;99.90;;;9.35;99.92;98964.03;2568109;30;136978;-39
2021/10/21 06:45:11;;;;;;;1.95;0.50;;;10.90;99.90;;;9.31;100.00;99020.06;2567136;30;139445;-39
2021/10/21 06:47:40;;;;;;;2.72;0.50;;;10.80;99.90;;;9.20;100.00;99038.94;2568800;30;136783;-39
2021/10/21 06:50:10;;;;;;;2.72;0.40;;;10.80;99.90;;;9.18;100.00;99076.47;2567813;30;139207;-39
2021/10/21 06:52:40;;;;;;;1.67;0.40;;;10.70;99.90;;;9.13;100.00;99110.91;2567237;30;137095;-39
2021/10/21 06:55:08;;;;;;;2.22;0.50;;;10.70;99.90;;;9.12;100.00;99131.84;2567554;30;138547;-39
2021/10/21 06:57:46;;;;;;;0.65;0.20;;;10.70;99.90;;;9.06;100.00;99170.91;2568136;30;137347;-39
2021/10/21 07:00:15;;;;;;;2.53;0.40;;;10.60;99.90;;;9.06;100.00;99192.69;2567840;30;139294;-39
2021/10/21 07:02:43;;;;;;;4.75;0.40;;;10.60;99.90;;;9.04;100.00;99233.75;2568136;30;136896;-39
2021/10/21 07:05:13;;;;;;;4.03;0.85;;;10.60;99.90;;;8.94;100.00;99236.22;2568109;30;138903;-39
2021/10/21 07:07:42;;;;;;;3.85;0.63;;;10.60;99.90;;;9.07;100.00;99259.63;2568654;30;137473;-39
2021/10/21 07:10:10;;;;;;;3.30;0.70;;;10.60;99.90;;;9.04;100.00;99293.59;2567873;30;138175;-40
2021/10/21 07:12:41;;;;;;;5.10;1.02;;;10.60;99.90;;;9.02;100.00;99309.34;2567731;30;137347;-39
2021/10/21 07:15:10;;;;;;;2.25;0.40;;;10.60;99.90;;;9.04;100.00;99315.34;2567993;30;138487;-39
2021/10/21 07:17:40;;;;;;;3.63;0.70;;;10.60;99.90;;;9.03;100.00;99353.66;2568942;30;136819;-39
2021/10/21 07:20:13;;;;;;;3.13;0.60;;;10.60;99.90;;;9.03;100.00;99381.72;2567770;30;137768;-39
2021/10/21 07:22:42;;;;;;;4.68;0.80;;;10.60;99.90;;;9.03;100.00;99378.16;2568842;30;137663;-39
2021/10/21 07:25:10;;;;;;;8.27;1.23;;;10.60;99.90;;;9.03;100.00;99408.06;2568640;30;138528;-40
2021/10/21 07:27:40;;;;;;;5.63;1.08;;;10.60;99.90;;;9.02;100.00;99412.72;2568897;30;137001;-39
2021/10/21 07:30:13;;;;;;;5.28;1.02;;;10.50;99.90;;;9.02;100.00;99433.63;2568126;30;138355;-39
2021/10/21 07:32:44;;;;;;;5.13;1.52;;;10.60;99.90;;;8.99;100.00;99456.69;2565197;30;137285;-40
2021/10/21 07:35:12;;;;;;;6.13;1.00;;;10.50;99.90;;;8.92;100.00;99455.97;2567482;30;137403;-39
2021/10/21 07:37:40;;;;;;;;;;;10.50;99.90;;;8.96;100.00;99454.44;2568343;30;138373;-39
2021/10/21 07:40:10;;;;;;;6.55;1.00;;;10.50;99.90;;;8.94;100.00;99500.09;2568700;30;139143;-39
2021/10/21 07:42:40;;;;;;;4.93;1.20;;;10.50;99.90;;;8.94;100.00;99521.84;2565321;30;138789;-40
2021/10/21 07:45:10;;;;;;;6.68;1.10;;;10.50;99.90;;;8.93;99.72;99528.34;2568479;30;138278;-39
2021/10/21 07:47:39;;;;;;;7.22;1.20;;;10.40;99.90;;;8.91;97.59;99549.50;2567285;30;136859;-40
2021/10/21 07:50:09;;;;;;;6.78;1.10;;;10.40;99.90;;;8.95;96.52;99567.03;2568153;30;137410;-40
2021/10/21 07:52:39;;;;;;;5.57;1.00;;;10.50;99.90;;;8.95;97.38;99580.63;2568451;30;136630;-39
2021/10/21 07:55:08;;;;;;;4.50;1.20;;;10.40;99.90;;;8.92;97.83;99579.22;2568976;30;137092;-39
2021/10/21 07:57:35;;;;;;;4.97;0.90;;;10.40;99.90;;;8.90;97.82;99589.50;2567944;30;136696;-40
2021/10/21 08:00:07;;;;;;;4.55;0.95;;;10.40;99.90;;;8.90;96.85;99605.81;2568321;30;138477;-39
2021/10/21 08:02:41;;;;;;;5.50;1.00;;;10.40;99.90;;;8.96;97.61;99622.28;2564880;30;136798;-39
2021/10/21 08:05:09;;;;;;;4.13;0.73;;;10.40;99.90;;;8.92;96.67;99635.50;2569322;30;136799;-39
2021/10/21 08:07:45;;;;;;;4.10;1.13;;;10.40;99.90;;;8.95;96.65;99639.66;2565501;30;137173;-39
2021/10/21 08:10:16;;;;;;;6.72;1.40;;;10.40;99.90;;;8.94;95.03;99636.09;2565946;30;138818;-40
2021/10/21 08:12:47;;;;;;;5.72;1.10;;;10.40;99.90;;;9.00;94.99;99637.06;2568061;30;138128;-40
2021/10/21 08:15:15;;;;;;;4.55;1.00;;;10.50;99.90;;;9.03;94.07;99658.38;2567597;30;139083;-39
2021/10/21 08:17:44;;;;;;;;;;;10.50;99.90;;;9.10;95.58;99658.28;2569334;30;137637;-40
2021/10/21 08:20:13;;;;;;;8.40;1.25;;;10.60;99.90;;;9.12;95.13;99669.75;2579244;30;138343;-38
2021/10/21 08:22:45;;;;;;;6.75;0.90;;;10.60;99.90;;;9.13;94.13;99693.19;2568461;30;136912;-39
2021/10/21 08:25:15;;;;;;;3.92;1.30;;;10.60;99.90;;;9.10;93.58;99702.63;2568527;30;139122;-38
2021/10/21 08:27:44;;;;;;;5.13;1.10;;;10.60;99.90;;;9.17;94.33;99721.59;2567272;30;136752;-38
2021/10/21 08:30:13;;;;;;;10.00;1.17;;;10.60;99.90;;;9.25;94.49;99713.09;2569082;30;138961;-38
2021/10/21 08:32:42;;;;;;;5.70;1.30;;;10.70;99.90;;;9.30;93.91;99720.59;2569253;30;137658;-38
2021/10/21 08:35:14;;;;;;;8.55;1.40;;;10.80;99.90;;;9.35;93.47;99732.44;2565654;30;138479;-38
2021/10/21 08:37:43;;;;;;;7.60;1.10;;;10.80;99.90;;;9.52;93.23;99723.59;2568574;30;137630;-38
2021/10/21 08:40:12;;;;;;;9.40;1.50;;;10.90;99.90;;;9.66;92.52;99737.03;2571469;30;138260;-38
2021/10/21 08:42:39;;;;;;;9.55;1.58;;;11.00;99.90;;;9.83;91.36;99742.63;2569285;30;137047;-38
2021/10/21 08:45:08;;;;;;;9.60;2.20;;;11.20;99.90;;;9.92;90.31;99750.22;2569164;30;137926;-38
2021/10/21 08:47:42;;;;;;;8.90;1.67;;;11.30;99.90;;;10.02;91.21;99760.56;2569046;30;138039;-38
2021/10/21 08:50:13;;;;;;;10.95;1.63;;;11.40;99.90;;;10.21;91.42;99769.47;2565851;30;137706;-38
2021/10/21 08:52:44;;;;;;;11.88;1.70;;;11.50;99.90;;;10.29;89.92;99760.09;2568907;30;137061;-38
2021/10/21 08:55:14;;;;;;;9.63;1.40;;;11.60;99.90;;;10.23;88.92;99774.69;2565667;30;137569;-38
2021/10/21 08:57:42;;;;;;;6.22;1.50;;;11.70;99.90;;;10.28;87.48;99780.25;2568154;30;137385;-38
2021/10/21 09:00:13;;;;;;;6.20;1.33;;;11.70;99.90;;;10.43;87.46;99796.19;2568277;30;137265;-38
2021/10/21 09:02:49;;;;;;;6.72;1.40;;;11.80;99.90;;;10.46;87.27;99783.94;2569120;30;138027;-39
2021/10/21 09:08:10;;;;;;;6.72;1.58;;;11.80;99.90;;;10.38;86.21;99792.47;2570480;30;137573;-38
2021/10/21 09:10:59;;;;;;;4.45;1.27;;;11.80;99.90;;;10.32;85.77;99805.13;2568782;30;139289;-38
2021/10/21 09:13:38;;;;;;;11.13;1.55;;;11.80;99.90;;;10.29;87.26;99825.53;2569054;30;137475;-38
2021/10/21 09:16:09;;;;;;;6.10;1.65;;;11.80;99.90;;;10.15;87.55;99827.66;2569787;30;138457;-38
2021/10/21 09:18:44;;;;;;;6.30;1.67;;;11.70;99.90;;;10.06;87.11;99831.75;2569176;30;136711;-38
2021/10/21 09:21:35;;;;;;;7.88;1.50;;;11.60;99.90;;;9.99;87.79;99858.28;2567009;30;138494;-38
2021/10/21 09:24:34;;;;;;;7.55;1.50;;;11.50;99.90;;;9.96;90.49;99850.56;2569170;30;138582;-38
2021/10/21 09:27:25;;;;;;;8.93;2.13;;;11.40;99.90;;;9.89;89.72;99859.69;2566646;30;137296;-39
2021/10/21 09:29:55;;;;;;;8.57;2.00;;;11.40;99.90;;;9.88;89.14;99858.03;2569053;30;137812;-38
2021/10/21 09:32:32;;;;;;;5.88;2.00;;;11.40;99.90;;;9.85;87.11;99865.81;2566745;30;138300;-38
2021/10/21 09:35:06;;;;;;;7.50;1.80;;;11.30;99.90;;;9.86;85.88;99872.94;2565873;30;137085;-38
2021/10/21 09:37:44;;;;;;;4.57;1.50;;;11.40;99.90;;;9.86;84.56;99875.66;2569054;30;138294;-38
2021/10/21 09:40:24;;;;;;;4.45;1.55;;;11.30;99.90;;;9.88;85.40;99879.81;2569327;30;137328;-40
2021/10/21 09:43:01;;;;;;;5.72;1.92;;;11.30;99.90;;;9.96;84.29;99899.63;2569043;30;137363;-38
2021/10/21 09:45:44;;;;;;;4.75;1.50;;;11.40;99.90;;;10.06;83.39;99891.72;2567875;30;137781;-38
2021/10/21 09:48:20;;;;;;;7.07;1.88;;;11.50;99.90;;;10.38;82.66;99896.91;2571264;30;138678;-38
2021/10/21 09:50:48;;;;;;;5.57;1.35;;;11.70;99.90;;;10.59;84.13;99887.38;2569273;30;137631;-38
2021/10/21 09:53:31;;;;;;;4.50;1.23;;;11.90;99.90;;;10.70;81.30;99912.16;2568738;30;138410;-38
2021/10/21 09:56:08;;;;;;;6.28;1.20;;;12.00;99.90;;;10.65;79.09;99915.59;2569735;30;138112;-38
2021/10/21 09:58:39;;;;;;;2.60;0.95;;;12.10;99.90;;;10.69;79.83;99922.25;2568601;30;138431;-38
2021/10/21 10:01:16;;;;;;;5.28;1.10;;;12.10;99.90;;;10.72;78.65;99929.13;2570763;30;136731;-38
2021/10/21 10:03:46;;;;;;;4.57;1.17;;;12.10;99.90;;;10.68;77.91;99931.50;2567693;30;138098;-38
2021/10/21 10:06:17;;;;;;;6.47;1.13;;;12.10;99.90;;;10.67;78.04;99939.91;2568980;30;137852;-38
2021/10/21 10:08:47;;;;;;;6.00;1.13;;;12.10;99.90;;;10.65;77.21;99942.88;2569318;30;137107;-38
2021/10/21 10:11:19;;;;;;;4.50;1.08;;;12.10;99.90;;;10.55;78.32;99932.53;2569238;30;138457;-39
2021/10/21 10:13:53;;;;;;;4.90;1.40;;;12.10;99.90;;;10.66;78.48;99950.00;2568131;30;138544;-38
2021/10/21 10:16:23;;;;;;;6.53;1.40;;;12.10;99.90;;;10.63;77.89;99942.28;2569321;30;136854;-38
2021/10/21 10:18:51;;;;;;;2.17;0.82;;;12.10;99.90;;;10.65;76.48;99949.16;2568359;30;138103;-39
2021/10/21 10:21:22;;;;;;;;;;;12.10;99.90;;;10.68;77.41;99928.78;2566454;30;137243;-39
2021/10/21 10:23:59;;;;;;;2.92;0.75;;;12.10;99.90;;;10.69;73.75;99946.81;2569187;30;137060;-38
2021/10/21 10:26:50;;;;;;;3.47;0.80;;;12.10;99.90;;;10.71;74.00;99943.81;2570180;30;137334;-39